Startpagina
METAR-TAF:

METAR-TAF

Vliegvelden :

Productieplatform

Hoorn-a, Nederland

breedte: 52-55-05N, lengte: 4-09-01E, hoogte: 41 m

Actueel weer

Dit bericht is 31 minuten geleden gemaakt, om 16:25 UTC
Wind 19 kt uit het westnoordwesten
Temperatuur 6°C
Vochtigheid 75%
Druk 1005 hPa
Zicht 10 km of meer
Weinig wolken op 1800 ft
Verspreide wolken op 4800 ft

METAR: EHQE 061625Z AUTO 29019KT 9999 FEW018 SCT048 06/02 Q1005

Tijdstip: 18:56 (16:56 UTC)


TAF: ontbreekt

Waarnemingen en weersverwachtingen van meer dan 4000 vliegvelden (METAR en TAF).

De beschikbare stations zijn de gele en rode punten op de kaart.

Ga met uw muis naar het station om de naam te zien.

Klik dan om waarnemingen en weersverwachtingen te zien.

kaart wijzigen: klik op de groene knoppen met een zwart kruis om in te zoomen, op de groene knop met een streepje om uit te zoomen of op de groene pijlen voor aangrenzende kaarten.


METAR-TAF: